Time;durP1;ratioP1;P1;durP2;ratioP2;P2;SDS_P1;SDS_P2;PMS_P1;PMS_P2;Temp;Humidity;BMP_temperature;BMP_pressure;BME280_temperature;BME280_humidity;BME280_pressure;Samples;Min_cycle;Max_cycle;Signal;HPM_P1;HPM_P2
2021/11/05 00:02:03;;;;;;;2.37;2.20;;;7.10;99.90;;;;;;7381081;19;20327;-77
2021/11/05 00:04:29;;;;;;;2.00;1.90;;;7.10;99.90;;;;;;7384466;19;20328;-79
2021/11/05 00:06:54;;;;;;;2.55;2.08;;;7.10;99.90;;;;;;7389333;19;20418;-78
2021/11/05 00:09:20;;;;;;;2.00;1.90;;;7.10;99.90;;;;;;7388167;19;20312;-78
2021/11/05 00:11:46;;;;;;;2.20;2.10;;;7.10;99.90;;;;;;7389099;19;20305;-78
2021/11/05 00:14:12;;;;;;;2.30;2.10;;;7.10;99.90;;;;;;7366380;19;20317;-79
2021/11/05 00:16:37;;;;;;;1.88;1.77;;;7.20;99.90;;;;;;7387425;19;20325;-78
2021/11/05 00:19:03;;;;;;;2.20;2.10;;;7.20;99.90;;;;;;7389488;19;20326;-78
2021/11/05 00:21:28;;;;;;;2.00;1.90;;;7.30;99.90;;;;;;7366930;19;20344;-78
2021/11/05 00:23:54;;;;;;;2.17;2.07;;;7.20;99.90;;;;;;7391074;19;20321;-78
2021/11/05 00:26:20;;;;;;;2.50;2.30;;;7.20;99.90;;;;;;7391782;19;20404;-78
2021/11/05 00:28:46;;;;;;;2.00;1.90;;;7.20;99.90;;;;;;7389655;19;20327;-78
2021/11/05 00:31:11;;;;;;;2.30;2.10;;;7.20;99.90;;;;;;7386413;19;20622;-78
2021/11/05 00:33:37;;;;;;;2.00;1.90;;;7.20;99.90;;;;;;7387424;19;20393;-79
2021/11/05 00:36:03;;;;;;;2.00;1.90;;;7.20;99.90;;;;;;7387443;19;20649;-79
2021/11/05 00:38:31;;;;;;;2.00;1.90;;;7.20;99.90;;;;;;7387128;19;20775;-78
2021/11/05 00:40:57;;;;;;;2.10;2.00;;;7.30;99.90;;;;;;7367215;19;20361;-78
2021/11/05 00:43:23;;;;;;;2.07;1.97;;;7.30;99.90;;;;;;7388757;19;20870;-78
2021/11/05 00:45:48;;;;;;;2.20;2.08;;;7.20;99.90;;;;;;7385995;19;20352;-77
2021/11/05 00:48:14;;;;;;;2.07;1.97;;;7.30;99.90;;;;;;7392604;19;20341;-78
2021/11/05 00:50:40;;;;;;;2.65;2.30;;;7.30;99.90;;;;;;7386823;19;20308;-78
2021/11/05 00:53:05;;;;;;;2.50;2.30;;;7.30;99.90;;;;;;7383978;19;20301;-77
2021/11/05 00:55:31;;;;;;;2.45;2.25;;;7.30;99.90;;;;;;7387509;19;20337;-78
2021/11/05 00:57:56;;;;;;;2.10;2.00;;;7.30;99.90;;;;;;7385714;19;21094;-79
2021/11/05 01:00:22;;;;;;;2.20;2.10;;;7.30;99.90;;;;;;7384746;19;20668;-78
2021/11/05 01:02:48;;;;;;;2.40;2.30;;;7.20;99.90;;;;;;7387218;19;20313;-78
2021/11/05 01:05:14;;;;;;;2.38;2.10;;;7.30;99.90;;;;;;7384858;19;20321;-78
2021/11/05 01:07:39;;;;;;;2.80;2.60;;;7.20;99.90;;;;;;7386736;19;20337;-78
2021/11/05 01:10:05;;;;;;;2.50;2.30;;;7.30;99.90;;;;;;7386717;19;20383;-78
2021/11/05 01:12:34;;;;;;;3.05;2.78;;;7.30;99.90;;;;;;7386863;19;20684;-78
2021/11/05 01:14:59;;;;;;;2.97;2.78;;;7.20;99.90;;;;;;7385195;19;20352;-79
2021/11/05 01:17:25;;;;;;;2.80;2.60;;;7.20;99.90;;;;;;7387669;19;20309;-78
2021/11/05 01:19:51;;;;;;;3.40;2.90;;;7.20;99.90;;;;;;7385155;19;20336;-79
2021/11/05 01:22:16;;;;;;;3.13;2.92;;;7.20;99.90;;;;;;7386393;19;20307;-78
2021/11/05 01:24:42;;;;;;;3.40;3.10;;;7.20;99.90;;;;;;7384041;19;20347;-77
2021/11/05 01:27:08;;;;;;;3.30;3.00;;;7.20;99.90;;;;;;7384973;19;20304;-78
2021/11/05 01:29:34;;;;;;;3.50;3.20;;;7.20;99.90;;;;;;7386340;19;20308;-78
2021/11/05 01:32:00;;;;;;;3.77;3.17;;;7.30;99.90;;;;;;7384542;19;20369;-78
2021/11/05 01:34:26;;;;;;;3.10;2.60;;;7.30;99.90;;;;;;7384942;19;20432;-79
2021/11/05 01:36:51;;;;;;;3.30;3.00;;;7.30;99.90;;;;;;7385819;19;20309;-79
2021/11/05 01:39:17;;;;;;;2.70;2.50;;;7.30;99.90;;;;;;7385150;19;21250;-79
2021/11/05 01:41:43;;;;;;;2.70;2.50;;;7.30;99.90;;;;;;7384675;19;20344;-78
2021/11/05 01:44:08;;;;;;;2.65;2.45;;;7.30;99.90;;;;;;7383526;19;20320;-78
2021/11/05 01:46:41;;;;;;;2.80;2.50;;;7.30;99.90;;;;;;7384297;19;20341;-78
2021/11/05 01:49:07;;;;;;;2.53;2.33;;;7.40;99.90;;;;;;7385381;19;20322;-78
2021/11/05 01:51:35;;;;;;;7.82;3.03;;;7.30;99.90;;;;;;7387919;19;20349;-78
2021/11/05 01:54:00;;;;;;;2.83;2.60;;;7.30;99.90;;;;;;7384624;19;20364;-78
2021/11/05 01:56:26;;;;;;;2.50;2.30;;;7.40;99.90;;;;;;7383534;19;20313;-78
2021/11/05 01:58:51;;;;;;;2.70;2.50;;;7.40;99.90;;;;;;7388065;19;20366;-77
2021/11/05 02:01:17;;;;;;;2.55;2.40;;;7.40;99.90;;;;;;7383869;19;20317;-78
2021/11/05 02:03:43;;;;;;;2.93;2.73;;;7.40;99.90;;;;;;7386359;19;20902;-77
2021/11/05 02:06:08;;;;;;;2.47;2.28;;;7.40;99.90;;;;;;7386085;19;20328;-78
2021/11/05 02:08:34;;;;;;;2.70;2.50;;;7.40;99.90;;;;;;7384575;19;20333;-79
2021/11/05 02:11:00;;;;;;;2.60;2.40;;;7.40;99.90;;;;;;7386630;19;20301;-78
2021/11/05 02:13:26;;;;;;;2.80;2.60;;;7.40;99.90;;;;;;7382920;19;20305;-78
2021/11/05 02:15:52;;;;;;;2.30;2.10;;;7.40;99.90;;;;;;7383380;19;20956;-77
2021/11/05 02:18:18;;;;;;;2.40;2.20;;;7.40;99.90;;;;;;7384836;19;20392;-78
2021/11/05 02:20:44;;;;;;;2.22;2.13;;;7.40;99.90;;;;;;7384518;19;20337;-78
2021/11/05 02:23:09;;;;;;;2.50;2.30;;;7.40;99.90;;;;;;7383879;19;20336;-78
2021/11/05 02:25:35;;;;;;;2.57;2.37;;;7.40;99.90;;;;;;7382219;19;20368;-78
2021/11/05 02:28:00;;;;;;;2.20;2.00;;;7.40;99.90;;;;;;7380893;19;21002;-79
2021/11/05 02:30:26;;;;;;;2.03;1.93;;;7.40;99.90;;;;;;7384338;19;20821;-79
2021/11/05 02:32:52;;;;;;;2.42;2.33;;;7.30;99.90;;;;;;7383723;19;20685;-80
2021/11/05 02:35:17;;;;;;;3.20;2.73;;;7.30;99.90;;;;;;7382453;19;20333;-79
2021/11/05 02:37:44;;;;;;;2.72;2.53;;;7.20;99.90;;;;;;7362495;19;20336;-79
2021/11/05 02:40:10;;;;;;;2.35;2.25;;;7.20;99.90;;;;;;7383406;19;20392;-78
2021/11/05 02:42:35;;;;;;;2.47;2.28;;;7.20;99.90;;;;;;7383754;19;20885;-79
2021/11/05 02:45:02;;;;;;;2.58;2.38;;;7.20;99.90;;;;;;7383427;19;20320;-79
2021/11/05 02:47:28;;;;;;;2.00;1.90;;;7.10;99.90;;;;;;7383289;19;20300;-78
2021/11/05 02:49:55;;;;;;;1.85;1.75;;;7.10;99.90;;;;;;7383463;19;21165;-79
2021/11/05 02:52:21;;;;;;;2.00;1.90;;;7.10;99.90;;;;;;7383355;19;20374;-79
2021/11/05 02:54:47;;;;;;;1.85;1.75;;;7.00;99.90;;;;;;7381875;19;20711;-78
2021/11/05 02:57:12;;;;;;;1.43;1.33;;;7.00;99.90;;;;;;7383582;19;20345;-78
2021/11/05 02:59:39;;;;;;;1.52;1.42;;;7.00;99.90;;;;;;7383582;19;20340;-78
2021/11/05 03:02:06;;;;;;;1.60;1.50;;;7.00;99.90;;;;;;7383658;19;20387;-78
2021/11/05 03:04:32;;;;;;;1.40;1.30;;;7.00;99.90;;;;;;7381585;19;20857;-79
2021/11/05 03:06:59;;;;;;;1.60;1.50;;;7.00;99.90;;;;;;7382307;19;20323;-78
2021/11/05 03:09:28;;;;;;;1.15;1.15;;;7.00;99.90;;;;;;7383277;19;20304;-79
2021/11/05 03:11:54;;;;;;;1.30;1.20;;;6.90;99.90;;;;;;7381506;19;20545;-79
2021/11/05 03:14:19;;;;;;;1.00;1.00;;;6.90;99.90;;;;;;7385511;19;20341;-79
2021/11/05 03:16:45;;;;;;;1.00;1.00;;;6.80;99.90;;;;;;7385893;19;20367;-79
2021/11/05 03:19:11;;;;;;;1.37;1.03;;;6.80;99.90;;;;;;7386612;19;20312;-79
2021/11/05 03:21:37;;;;;;;0.90;0.90;;;6.80;99.90;;;;;;7387462;19;20371;-79
2021/11/05 03:24:03;;;;;;;1.02;0.93;;;6.80;99.90;;;;;;7388590;19;20697;-79
2021/11/05 03:26:29;;;;;;;0.97;0.97;;;6.70;99.90;;;;;;7382249;19;20316;-79
2021/11/05 03:28:55;;;;;;;1.00;1.00;;;6.70;99.90;;;;;;7385542;19;20336;-79
2021/11/05 03:31:21;;;;;;;0.98;0.98;;;6.70;99.90;;;;;;7383317;19;20451;-79
2021/11/05 03:33:47;;;;;;;1.07;1.07;;;6.70;99.90;;;;;;7381961;19;20336;-78
2021/11/05 03:36:13;;;;;;;0.80;0.80;;;6.70;99.90;;;;;;7381008;19;20872;-79
2021/11/05 03:38:38;;;;;;;1.10;1.00;;;6.70;99.90;;;;;;7380942;19;20334;-79
2021/11/05 03:41:04;;;;;;;0.93;0.93;;;6.70;99.90;;;;;;7381838;19;20333;-79
2021/11/05 03:43:30;;;;;;;1.00;1.00;;;6.70;99.90;;;;;;7382596;19;20375;-79
2021/11/05 03:45:56;;;;;;;1.13;1.02;;;6.70;99.90;;;;;;7379960;19;20321;-79
2021/11/05 03:48:21;;;;;;;0.90;0.90;;;6.70;99.90;;;;;;7381289;19;20375;-79
2021/11/05 03:50:47;;;;;;;1.10;1.10;;;6.70;99.90;;;;;;7382505;19;20750;-79
2021/11/05 03:53:13;;;;;;;0.90;0.90;;;6.70;99.90;;;;;;7379744;19;20352;-78
2021/11/05 03:55:40;;;;;;;0.90;0.90;;;6.70;99.90;;;;;;7380644;19;20337;-78
2021/11/05 03:58:06;;;;;;;1.00;1.00;;;6.70;99.90;;;;;;7381270;19;20293;-79
2021/11/05 04:00:31;;;;;;;0.80;0.80;;;6.60;99.90;;;;;;7382621;19;20362;-78
2021/11/05 04:02:57;;;;;;;0.90;0.90;;;6.70;99.90;;;;;;7383017;19;20297;-78
2021/11/05 04:05:23;;;;;;;0.90;0.90;;;6.70;99.90;;;;;;7380975;19;20351;-79
2021/11/05 04:07:51;;;;;;;0.90;0.90;;;6.70;99.90;;;;;;7371130;19;20304;-79
2021/11/05 04:10:16;;;;;;;0.95;0.95;;;6.70;99.90;;;;;;7379660;19;20345;-78
2021/11/05 04:12:42;;;;;;;1.00;1.00;;;6.70;99.90;;;;;;7380490;19;20929;-78
2021/11/05 04:15:08;;;;;;;2.00;1.20;;;6.70;99.90;;;;;;7378887;19;20328;-79
2021/11/05 04:17:34;;;;;;;0.90;0.90;;;6.70;99.90;;;;;;7381707;19;20415;-78
2021/11/05 04:20:04;;;;;;;1.20;1.15;;;6.70;99.90;;;;;;7379611;19;20372;-78
2021/11/05 04:22:29;;;;;;;1.08;1.08;;;6.70;99.90;;;;;;7381724;19;20753;-79
2021/11/05 04:24:55;;;;;;;1.60;1.50;;;6.70;99.90;;;;;;7381998;19;20305;-78
2021/11/05 04:27:21;;;;;;;2.00;1.90;;;6.70;99.90;;;;;;7381681;19;20308;-78
2021/11/05 04:29:47;;;;;;;1.90;1.80;;;6.70;99.90;;;;;;7381321;19;20301;-79
2021/11/05 04:32:12;;;;;;;1.90;1.80;;;6.80;99.90;;;;;;7380256;19;20330;-79
2021/11/05 04:34:38;;;;;;;2.30;2.10;;;6.70;99.90;;;;;;7379224;19;20874;-79
2021/11/05 04:37:04;;;;;;;2.13;2.03;;;6.70;99.90;;;;;;7383061;19;20301;-78
2021/11/05 04:39:29;;;;;;;2.50;2.30;;;6.70;99.90;;;;;;7379281;19;20324;-79
2021/11/05 04:41:55;;;;;;;2.55;2.38;;;6.80;99.90;;;;;;7379653;19;20348;-79
2021/11/05 04:44:21;;;;;;;2.67;2.47;;;6.80;99.90;;;;;;7384145;19;20338;-78
2021/11/05 04:46:47;;;;;;;2.50;2.30;;;6.80;99.90;;;;;;7381161;19;20904;-78
2021/11/05 04:49:13;;;;;;;2.38;2.20;;;6.80;99.90;;;;;;7380137;19;20313;-79
2021/11/05 04:51:38;;;;;;;2.30;2.20;;;6.80;99.90;;;;;;7386881;19;20315;-79
2021/11/05 04:54:06;;;;;;;2.60;2.40;;;6.90;99.90;;;;;;7387690;19;20360;-78
2021/11/05 04:56:32;;;;;;;2.67;2.47;;;6.80;99.90;;;;;;7386877;19;20320;-78
2021/11/05 04:58:57;;;;;;;2.40;2.23;;;6.80;99.90;;;;;;7385477;19;20773;-77
2021/11/05 05:01:24;;;;;;;2.40;2.22;;;6.80;99.90;;;;;;7384865;19;20364;-79
2021/11/05 05:03:50;;;;;;;2.35;2.20;;;6.80;99.90;;;;;;7388427;19;20406;-78
2021/11/05 05:06:16;;;;;;;2.40;2.20;;;6.80;99.90;;;;;;7381288;19;20435;-79
2021/11/05 05:08:41;;;;;;;2.20;2.10;;;6.80;99.90;;;;;;7388247;19;20391;-78
2021/11/05 05:11:07;;;;;;;2.37;2.17;;;6.80;99.90;;;;;;7386623;19;20320;-79
2021/11/05 05:13:33;;;;;;;2.25;2.03;;;6.80;99.90;;;;;;7384672;19;20348;-79
2021/11/05 05:15:58;;;;;;;2.10;2.00;;;6.80;99.90;;;;;;7383480;19;20332;-78
2021/11/05 05:18:24;;;;;;;1.95;1.85;;;6.80;99.90;;;;;;7385340;19;20388;-78
2021/11/05 05:20:50;;;;;;;2.47;2.20;;;6.80;99.90;;;;;;7384839;19;20319;-79
2021/11/05 05:23:15;;;;;;;2.20;2.00;;;6.80;99.90;;;;;;7383883;19;20392;-78
2021/11/05 05:25:41;;;;;;;2.30;2.10;;;6.80;99.90;;;;;;7386140;19;20412;-77
2021/11/05 05:28:07;;;;;;;1.80;1.70;;;6.80;99.90;;;;;;7385664;19;20308;-78
2021/11/05 05:30:33;;;;;;;2.13;1.93;;;6.70;99.90;;;;;;7384752;19;20328;-78
2021/11/05 05:32:59;;;;;;;1.90;1.80;;;6.80;99.90;;;;;;7391615;19;20998;-79
2021/11/05 05:35:24;;;;;;;2.00;1.90;;;6.70;99.90;;;;;;7382396;19;20333;-76
2021/11/05 05:37:53;;;;;;;4.35;1.60;;;6.80;99.90;;;;;;7386348;19;20347;-77
2021/11/05 05:40:19;;;;;;;1.60;1.50;;;6.70;99.90;;;;;;7383909;19;20335;-77
2021/11/05 05:42:44;;;;;;;2.03;1.92;;;6.70;99.90;;;;;;7381689;19;20337;-77
2021/11/05 05:45:10;;;;;;;1.80;1.70;;;6.70;99.90;;;;;;7383576;19;20327;-77
2021/11/05 05:47:36;;;;;;;1.60;1.50;;;6.70;99.90;;;;;;7383020;19;20340;-77
2021/11/05 05:50:07;;;;;;;1.40;1.30;;;6.70;99.90;;;;;;7384226;19;20383;-77
2021/11/05 05:52:32;;;;;;;1.58;1.48;;;6.70;99.90;;;;;;7385473;19;20305;-77
2021/11/05 05:54:58;;;;;;;1.87;1.60;;;6.60;99.90;;;;;;7385354;19;20352;-78
2021/11/05 05:57:24;;;;;;;1.50;1.40;;;6.70;99.90;;;;;;7386785;19;20313;-78
2021/11/05 05:59:49;;;;;;;1.33;1.33;;;6.70;99.90;;;;;;7383721;19;20887;-78
2021/11/05 06:02:15;;;;;;;1.70;1.60;;;6.70;99.90;;;;;;7385120;19;20741;-78
2021/11/05 06:04:43;;;;;;;3.53;3.20;;;6.70;99.90;;;;;;7388859;19;20322;-78
2021/11/05 06:07:09;;;;;;;1.48;1.38;;;6.70;99.90;;;;;;7389931;19;20341;-79
2021/11/05 06:09:34;;;;;;;1.27;1.27;;;6.70;99.90;;;;;;7389668;19;20330;-78
2021/11/05 06:12:00;;;;;;;1.60;1.50;;;6.70;99.90;;;;;;7388467;19;20777;-79
2021/11/05 06:14:26;;;;;;;1.63;1.52;;;6.70;99.90;;;;;;7387596;19;20325;-81
2021/11/05 06:16:51;;;;;;;1.17;1.17;;;6.80;99.90;;;;;;7385169;19;20348;-80
2021/11/05 06:19:28;;;;;;;1.50;1.40;;;6.70;99.90;;;;;;7385781;19;20472;-79
2021/11/05 06:22:01;;;;;;;1.33;1.23;;;6.70;99.90;;;;;;7375294;19;20355;-80
2021/11/05 06:24:28;;;;;;;1.60;1.50;;;6.70;99.90;;;;;;7388232;19;20347;-80
2021/11/05 06:26:54;;;;;;;1.27;1.25;;;6.60;99.90;;;;;;7379329;19;21051;-79
2021/11/05 06:29:19;;;;;;;1.33;1.23;;;6.70;99.90;;;;;;7382188;19;20324;-80
2021/11/05 06:31:45;;;;;;;1.20;1.20;;;6.70;99.90;;;;;;7361449;19;21193;-79
2021/11/05 06:34:11;;;;;;;2.60;2.28;;;6.70;99.90;;;;;;7386131;19;20296;-79
2021/11/05 06:36:37;;;;;;;1.60;1.50;;;6.70;99.90;;;;;;7364635;19;21426;-79
2021/11/05 06:39:04;;;;;;;1.30;1.30;;;6.70;99.90;;;;;;7388880;19;20365;-80
2021/11/05 06:41:29;;;;;;;1.20;1.20;;;6.70;99.90;;;;;;7363428;19;20360;-79
2021/11/05 06:43:55;;;;;;;1.40;1.30;;;6.80;99.90;;;;;;7381646;19;20408;-78
2021/11/05 06:46:21;;;;;;;1.40;1.30;;;6.70;99.90;;;;;;7379638;19;20336;-80
2021/11/05 06:48:47;;;;;;;1.73;1.52;;;6.70;99.90;;;;;;7381403;19;20419;-79
2021/11/05 06:51:13;;;;;;;1.30;1.30;;;6.70;99.90;;;;;;7382507;19;20359;-79
2021/11/05 06:53:39;;;;;;;1.20;1.20;;;6.70;99.90;;;;;;7382596;19;20354;-80
2021/11/05 06:56:05;;;;;;;1.50;1.40;;;6.70;99.90;;;;;;7381681;19;20851;-80
2021/11/05 06:58:36;;;;;;;1.50;1.40;;;6.60;99.90;;;;;;7381065;19;20351;-79
2021/11/05 07:01:04;;;;;;;1.50;1.40;;;6.80;99.90;;;;;;7383271;19;20390;-79
2021/11/05 07:03:34;;;;;;;1.60;1.50;;;6.70;99.90;;;;;;7381878;19;20332;-80
2021/11/05 07:06:00;;;;;;;1.40;1.30;;;6.70;99.90;;;;;;7382460;19;20392;-78
2021/11/05 07:08:26;;;;;;;1.23;1.23;;;6.80;99.90;;;;;;7382693;19;20305;-80
2021/11/05 07:10:52;;;;;;;1.48;1.38;;;6.60;99.90;;;;;;7381583;19;20372;-79
2021/11/05 07:13:18;;;;;;;1.52;1.42;;;6.70;99.90;;;;;;7378785;19;20349;-79
2021/11/05 07:15:44;;;;;;;1.50;1.40;;;6.70;99.90;;;;;;7381066;19;20340;-79
2021/11/05 07:18:10;;;;;;;1.57;1.47;;;6.80;99.90;;;;;;7383955;19;20313;-80
2021/11/05 07:20:36;;;;;;;1.65;1.55;;;6.70;99.90;;;;;;7385190;19;20453;-80
2021/11/05 07:23:03;;;;;;;1.40;1.30;;;6.80;99.90;;;;;;7385123;19;20347;-79
2021/11/05 07:25:29;;;;;;;1.65;1.55;;;6.90;99.90;;;;;;7383514;19;20847;-80
2021/11/05 07:27:55;;;;;;;1.70;1.60;;;6.90;99.90;;;;;;7384095;19;20333;-80
2021/11/05 07:30:21;;;;;;;1.60;1.50;;;6.80;99.90;;;;;;7386902;19;20320;-80
2021/11/05 07:32:47;;;;;;;1.50;1.40;;;6.80;99.90;;;;;;7385643;19;20856;-80
2021/11/05 07:35:17;;;;;;;1.70;1.60;;;6.90;99.90;;;;;;7382822;19;20360;-80
2021/11/05 07:37:42;;;;;;;1.80;1.70;;;6.80;99.90;;;;;;7384362;19;20758;-80
2021/11/05 07:40:09;;;;;;;1.40;1.30;;;6.80;99.90;;;;;;7364026;19;20336;-79
2021/11/05 07:42:38;;;;;;;2.85;1.50;;;6.80;99.90;;;;;;7383597;19;20384;-80
2021/11/05 07:45:05;;;;;;;1.70;1.60;;;6.90;99.90;;;;;;7383936;19;20304;-80
2021/11/05 07:47:31;;;;;;;1.70;1.60;;;6.90;99.90;;;;;;7385752;19;20338;-80
2021/11/05 07:49:56;;;;;;;1.63;1.52;;;6.80;99.90;;;;;;7386137;19;20880;-79
2021/11/05 07:52:22;;;;;;;1.73;1.63;;;6.90;99.90;;;;;;7384842;19;20336;-80
2021/11/05 07:54:48;;;;;;;1.85;1.60;;;7.00;99.90;;;;;;7385292;19;20308;-79
2021/11/05 07:57:14;;;;;;;1.90;1.80;;;6.90;99.90;;;;;;7382702;19;20344;-80
2021/11/05 08:02:43;;;;;;;1.80;1.70;;;6.90;99.90;;;;;;7371333;19;20336;-81
2021/11/05 08:05:09;;;;;;;1.80;1.70;;;6.90;99.90;;;;;;7391398;19;20329;-80
2021/11/05 08:08:08;;;;;;;2.08;1.98;;;6.90;99.90;;;;;;7404238;19;20336;-80
2021/11/05 08:10:57;;;;;;;2.10;1.90;;;6.90;99.90;;;;;;7381800;19;20320;-81
2021/11/05 08:17:19;;;;;;;1.98;1.88;;;7.00;99.90;;;;;;7413774;19;20344;-81
2021/11/05 08:20:06;;;;;;;1.98;1.88;;;7.00;99.90;;;;;;7312192;19;2005120;-80
2021/11/05 08:22:32;;;;;;;2.00;1.90;;;7.10;99.90;;;;;;7382125;19;20326;-79
2021/11/05 08:24:57;;;;;;;2.30;2.20;;;7.10;99.90;;;;;;7384011;19;20312;-80
2021/11/05 08:27:23;;;;;;;2.20;2.10;;;7.00;99.90;;;;;;7393890;19;20313;-78
2021/11/05 08:29:49;;;;;;;2.42;2.30;;;7.10;99.90;;;;;;7393177;19;20312;-79
2021/11/05 08:32:15;;;;;;;3.63;2.60;;;7.20;99.90;;;;;;7391563;19;20705;-78
2021/11/05 08:34:40;;;;;;;3.72;2.63;;;7.30;99.90;;;;;;7387052;19;20855;-78
2021/11/05 08:37:06;;;;;;;2.40;2.20;;;7.20;99.90;;;;;;7384793;19;20883;-78
2021/11/05 08:39:32;;;;;;;2.60;2.40;;;7.20;99.90;;;;;;7387658;19;20320;-78
2021/11/05 08:41:58;;;;;;;2.73;2.53;;;7.20;99.90;;;;;;7386479;19;20430;-78
2021/11/05 08:44:24;;;;;;;2.63;2.42;;;7.30;99.90;;;;;;7388668;19;20626;-77
2021/11/05 08:46:49;;;;;;;3.00;2.80;;;7.30;99.90;;;;;;7390314;19;20669;-78
2021/11/05 08:49:15;;;;;;;2.90;2.70;;;7.30;99.90;;;;;;7392704;19;20689;-78
2021/11/05 08:51:43;;;;;;;2.70;2.50;;;7.30;99.90;;;;;;7390527;19;21031;-78
2021/11/05 08:54:08;;;;;;;3.10;2.80;;;7.30;99.90;;;;;;7386933;19;20352;-77
2021/11/05 08:56:34;;;;;;;2.88;2.67;;;7.30;99.90;;;;;;7387664;19;20713;-78
2021/11/05 08:59:00;;;;;;;2.83;2.63;;;7.30;99.90;;;;;;7388370;19;20300;-78
2021/11/05 09:01:26;;;;;;;2.60;2.40;;;7.40;99.90;;;;;;7383688;19;20855;-78
2021/11/05 09:03:51;;;;;;;2.87;2.67;;;7.40;99.90;;;;;;7386335;19;20309;-79
2021/11/05 09:06:17;;;;;;;2.85;2.65;;;7.40;99.90;;;;;;7387538;19;20319;-76
2021/11/05 09:08:44;;;;;;;3.17;2.87;;;7.40;99.90;;;;;;7390628;19;20334;-79
2021/11/05 09:11:09;;;;;;;3.20;2.90;;;7.40;99.90;;;;;;7386803;19;20324;-79
2021/11/05 09:13:35;;;;;;;3.47;3.20;;;7.30;99.90;;;;;;7387253;19;20304;-77
2021/11/05 09:16:02;;;;;;;3.60;3.30;;;7.40;99.90;;;;;;7382962;19;20413;-79
2021/11/05 09:18:27;;;;;;;2.97;2.78;;;7.40;99.90;;;;;;7382689;19;20340;-79
2021/11/05 09:20:53;;;;;;;3.10;2.80;;;7.40;99.90;;;;;;7385206;19;20337;-79
2021/11/05 09:23:19;;;;;;;3.10;2.90;;;7.40;99.90;;;;;;7382667;19;20307;-79
2021/11/05 09:25:44;;;;;;;2.93;2.73;;;7.50;99.90;;;;;;7386170;19;20957;-79
2021/11/05 09:28:10;;;;;;;3.13;2.92;;;7.50;99.90;;;;;;7384773;19;20848;-79
2021/11/05 09:30:36;;;;;;;3.20;2.90;;;7.50;99.90;;;;;;7385458;19;20693;-78
2021/11/05 09:33:02;;;;;;;3.27;2.97;;;7.60;99.90;;;;;;7387916;19;20384;-79
2021/11/05 09:35:28;;;;;;;2.90;2.70;;;7.60;99.90;;;;;;7386095;19;20370;-80
2021/11/05 09:37:54;;;;;;;3.35;3.05;;;7.50;99.90;;;;;;7388217;19;20316;-80
2021/11/05 09:40:22;;;;;;;3.50;3.20;;;7.60;99.90;;;;;;7388498;19;20354;-78
2021/11/05 09:43:03;;;;;;;3.40;3.10;;;7.60;99.90;;;;;;7388329;19;20667;-80
2021/11/05 09:45:58;;;;;;;3.50;3.20;;;7.60;99.90;;;;;;7392088;19;20301;-79
2021/11/05 09:48:44;;;;;;;3.70;3.40;;;7.70;99.90;;;;;;7325246;19;20337;-79
2021/11/05 09:51:11;;;;;;;3.67;3.38;;;7.70;99.90;;;;;;7336781;19;20364;-80
2021/11/05 09:53:42;;;;;;;4.23;3.27;;;7.70;99.90;;;;;;7366931;19;20353;-79
2021/11/05 09:56:10;;;;;;;3.38;3.08;;;7.70;99.90;;;;;;7387503;19;20424;-80
2021/11/05 09:58:47;;;;;;;3.30;3.00;;;7.80;99.90;;;;;;7388519;19;20692;-79
2021/11/05 10:04:10;;;;;;;3.58;3.22;;;7.80;99.90;;;;;;7350657;19;20353;-78
2021/11/05 10:07:09;;;;;;;3.60;3.30;;;7.90;99.90;;;;;;7368631;19;20321;-80
2021/11/05 10:10:06;;;;;;;3.70;3.40;;;7.80;99.90;;;;;;7215716;19;2004360;-78
2021/11/05 10:12:36;;;;;;;3.70;3.40;;;7.90;99.90;;;;;;7386848;19;20300;-80
2021/11/05 10:15:10;;;;;;;4.00;3.70;;;8.00;99.90;;;;;;7378272;19;20357;-80
2021/11/05 10:18:06;;;;;;;3.35;3.15;;;8.00;99.90;;;;;;7343735;19;20329;-80
2021/11/05 10:20:37;;;;;;;4.53;3.30;;;8.00;99.90;;;;;;7385327;19;20320;-79
2021/11/05 10:23:11;;;;;;;4.03;3.72;;;8.10;99.90;;;;;;7345760;19;20316;-80
2021/11/05 10:29:02;;;;;;;3.78;3.47;;;8.10;99.90;;;;;;7398906;19;20911;-81
2021/11/05 10:31:45;;;;;;;4.30;3.97;;;8.10;99.90;;;;;;7369286;19;20428;-81
2021/11/05 10:34:18;;;;;;;5.82;5.22;;;8.10;99.90;;;;;;7366226;19;20323;-81
2021/11/05 10:40:31;;;;;;;4.50;4.10;;;8.30;99.90;;;;;;7388734;19;20315;-79
2021/11/05 10:42:59;;;;;;;4.25;3.85;;;8.30;99.90;;;;;;7386424;19;20366;-79
2021/11/05 10:45:30;;;;;;;4.75;4.35;;;8.30;99.90;;;;;;7386543;19;20873;-81
2021/11/05 10:48:02;;;;;;;4.70;4.30;;;8.30;99.90;;;;;;7330088;19;20911;-80
2021/11/05 10:50:50;;;;;;;7.68;6.45;;;8.30;99.90;;;;;;7333323;19;20312;-81
2021/11/05 10:53:49;;;;;;;8.90;5.10;;;8.30;99.90;;;;;;7249430;19;2004944;-80
2021/11/05 10:56:30;;;;;;;5.10;4.70;;;8.30;99.90;;;;;;7372253;19;20658;-80
2021/11/05 10:59:32;;;;;;;6.87;5.37;;;8.20;99.90;;;;;;7288188;19;2004439;-80
2021/11/05 11:02:28;;;;;;;5.32;4.82;;;8.30;99.90;;;;;;7219264;19;2004199;-80
2021/11/05 11:05:48;;;;;;;5.53;5.03;;;8.30;99.90;;;;;;7268835;19;2006300;-80
2021/11/05 11:08:29;;;;;;;5.07;4.63;;;8.30;99.90;;;;;;7236253;19;2004771;-79
2021/11/05 11:11:53;;;;;;;6.18;5.50;;;8.40;99.90;;;;;;7207105;19;2004254;-80
2021/11/05 11:14:31;;;;;;;6.10;5.50;;;8.40;99.90;;;;;;7237879;19;2008115;-81
2021/11/05 11:16:56;;;;;;;7.20;5.85;;;8.50;99.90;;;;;;7371477;19;20692;-80
2021/11/05 11:19:44;;;;;;;5.53;5.13;;;8.50;99.90;;;;;;7414935;19;20328;-81
2021/11/05 11:22:27;;;;;;;8.27;7.57;;;8.50;99.90;;;;;;7327920;19;20320;-80
2021/11/05 12:02:14;;;;;;;7.78;6.05;;;8.60;99.90;;;;;;7383941;19;20309;-82
2021/11/05 12:08:21;;;;;;;6.30;5.70;;;8.80;99.90;;;;;;7366201;19;20332;-82
2021/11/05 12:10:54;;;;;;;6.13;5.60;;;8.60;99.90;;;;;;7288453;19;2004410;-81
2021/11/05 12:41:07;;;;;;;7.33;6.63;;;8.80;99.90;;;;;;7369915;19;20331;-82
2021/11/05 13:10:51;;;;;;;6.05;5.55;;;9.10;99.90;;;;;;7381201;19;20372;-81
2021/11/05 13:22:14;;;;;;;5.22;4.68;;;9.30;99.90;;;;;;7366087;19;20325;-80
2021/11/05 13:28:07;;;;;;;5.03;4.55;;;9.30;99.90;;;;;;7339299;19;20332;-82
2021/11/05 13:30:55;;;;;;;5.15;4.68;;;9.30;99.90;;;;;;7281123;19;2004614;-83
2021/11/05 13:46:18;;;;;;;5.27;4.77;;;9.20;99.90;;;;;;7341509;19;20337;-80
2021/11/05 13:48:51;;;;;;;8.88;5.50;;;9.10;99.90;;;;;;7261521;19;2004529;-83
2021/11/05 13:51:24;;;;;;;5.15;4.72;;;8.90;99.90;;;;;;7381923;19;20305;-81
2021/11/05 13:54:02;;;;;;;5.83;5.33;;;9.00;99.90;;;;;;7384381;19;20348;-81
2021/11/05 13:56:42;;;;;;;6.35;5.28;;;8.90;99.90;;;;;;7329176;19;20325;-82
2021/11/05 14:02:21;;;;;;;5.70;5.20;;;8.80;99.90;;;;;;7361048;19;20305;-81
2021/11/05 14:04:48;;;;;;;5.72;5.03;;;8.90;99.90;;;;;;7386382;19;20324;-81
2021/11/05 14:07:23;;;;;;;6.00;4.72;;;8.80;99.90;;;;;;7386604;19;20394;-81
2021/11/05 14:10:02;;;;;;;5.70;5.20;;;8.90;99.90;;;;;;7292788;19;2004501;-81
2021/11/05 14:12:29;;;;;;;4.57;4.15;;;8.90;99.90;;;;;;7387482;19;20332;-82
2021/11/05 14:48:36;;;;;;;5.75;4.63;;;8.80;99.90;;;;;;7368380;19;20313;-80
2021/11/05 14:51:23;;;;;;;4.23;3.93;;;8.80;99.90;;;;;;7367564;19;20336;-80
2021/11/05 14:54:03;;;;;;;8.48;4.95;;;8.80;99.90;;;;;;7314677;19;20325;-80
2021/11/05 14:56:32;;;;;;;5.60;4.50;;;8.70;99.90;;;;;;7279292;19;2004503;-81
2021/11/05 14:58:59;;;;;;;5.15;4.72;;;8.80;99.90;;;;;;7380897;19;20320;-80
2021/11/05 15:01:26;;;;;;;4.93;4.43;;;8.80;99.90;;;;;;7373892;19;20328;-81
2021/11/05 15:06:55;;;;;;;4.30;3.90;;;8.80;99.90;;;;;;7358612;19;20316;-80
2021/11/05 15:09:25;;;;;;;4.70;4.30;;;8.70;99.90;;;;;;7368264;19;20316;-80
2021/11/05 15:12:17;;;;;;;4.55;4.20;;;8.80;99.90;;;;;;7377659;19;20705;-83
2021/11/05 15:14:44;;;;;;;4.68;4.28;;;8.80;99.90;;;;;;7379009;19;20357;-81
2021/11/05 15:17:10;;;;;;;5.57;4.20;;;8.80;99.90;;;;;;7381176;19;20348;-81
2021/11/05 15:19:36;;;;;;;4.20;3.90;;;8.80;99.90;;;;;;7380165;19;20316;-83
2021/11/05 15:22:02;;;;;;;4.90;4.50;;;8.80;99.90;;;;;;7378918;19;20347;-81
2021/11/05 15:24:28;;;;;;;3.95;3.58;;;8.70;99.90;;;;;;7377276;19;20311;-81
2021/11/05 15:26:55;;;;;;;6.43;4.22;;;8.70;99.90;;;;;;7377236;19;20317;-81
2021/11/05 15:29:21;;;;;;;5.32;4.30;;;8.70;99.90;;;;;;7379477;19;20313;-80
2021/11/05 15:31:46;;;;;;;4.33;3.90;;;8.70;99.90;;;;;;7377232;19;21087;-79
2021/11/05 15:34:12;;;;;;;5.55;4.18;;;8.70;99.90;;;;;;7376329;19;20351;-78
2021/11/05 15:36:39;;;;;;;4.15;3.75;;;8.70;99.90;;;;;;7375817;19;20655;-83
2021/11/05 15:39:31;;;;;;;4.28;3.88;;;8.70;99.90;;;;;;7386431;19;20686;-83
2021/11/05 15:42:00;;;;;;;3.53;3.23;;;8.70;99.90;;;;;;7384338;19;20400;-82
2021/11/05 17:16:04;;;;;;;5.65;5.15;;;8.40;99.90;;;;;;7361282;19;20356;-81
2021/11/05 17:19:38;;;;;;;7.38;6.28;;;8.50;99.90;;;;;;7378162;19;20324;-80
2021/11/05 17:22:07;;;;;;;6.53;5.93;;;8.40;99.90;;;;;;7282661;19;2004580;-81
2021/11/05 17:24:39;;;;;;;6.65;5.95;;;8.40;99.90;;;;;;7388580;19;20357;-82
2021/11/05 17:27:05;;;;;;;5.68;5.07;;;8.40;99.90;;;;;;7383195;19;20345;-81
2021/11/05 17:29:33;;;;;;;5.47;4.97;;;8.40;99.90;;;;;;7393448;19;20331;-81
2021/11/05 17:32:05;;;;;;;5.50;5.00;;;8.30;99.90;;;;;;7367867;19;20296;-81
2021/11/05 17:49:50;;;;;;;4.55;4.15;;;8.30;99.90;;;;;;7358309;19;20747;-81